Time;durP1;ratioP1;P1;durP2;ratioP2;P2;SDS_P1;SDS_P2;PMS_P1;PMS_P2;Temp;Humidity;BMP_temperature;BMP_pressure;BME280_temperature;BME280_humidity;BME280_pressure;Samples;Min_cycle;Max_cycle;Signal;HPM_P1;HPM_P2
2023/11/26 00:00:50;;;;;;;36.70;23.20;;;;;;;-0.33;76.50;95745.13;104589;1258;100832;-74
2023/11/26 00:03:38;;;;;;;34.10;20.70;;;;;;;-0.34;76.55;95747.36;104640;1259;102383;-73
2023/11/26 00:06:06;;;;;;;35.30;21.60;;;;;;;-0.37;76.56;95739.31;104659;1270;100275;-74
2023/11/26 00:08:34;;;;;;;32.80;20.40;;;;;;;-0.40;76.58;95737.59;104619;1258;96591;-74
2023/11/26 00:11:02;;;;;;;30.40;19.90;;;;;;;-0.41;76.63;95737.66;104659;1258;98161;-75
2023/11/26 00:13:30;;;;;;;28.30;18.00;;;;;;;-0.40;76.71;95741.61;104690;1272;101392;-74
2023/11/26 00:15:58;;;;;;;29.20;18.00;;;;;;;-0.42;76.75;95739.65;104664;1273;101471;-75
2023/11/26 00:18:28;;;;;;;24.60;16.40;;;;;;;-0.43;76.79;95738.78;104586;1270;99768;-76
2023/11/26 00:20:57;;;;;;;28.70;17.80;;;;;;;-0.41;76.86;95740.59;104618;1261;96707;-74
2023/11/26 00:23:25;;;;;;;44.40;26.70;;;;;;;-0.45;76.83;95739.90;104774;1272;98316;-75
2023/11/26 00:25:56;;;;;;;60.30;34.10;;;;;;;-0.46;76.93;95745.17;104706;1260;102004;-75
2023/11/26 00:28:24;;;;;;;41.20;24.90;;;;;;;-0.44;76.94;95746.79;104704;1257;101435;-77
2023/11/26 00:30:53;;;;;;;42.00;25.10;;;;;;;-0.44;76.98;95748.64;104653;1261;98666;-84
2023/11/26 00:33:21;;;;;;;133.50;54.90;;;;;;;-0.41;77.03;95744.80;104488;1262;97581;-83
2023/11/26 00:35:49;;;;;;;76.80;35.80;;;;;;;-0.40;76.99;95746.61;104750;1260;97135;-81
2023/11/26 00:38:17;;;;;;;47.70;25.00;;;;;;;-0.42;77.13;95749.85;104653;1261;101928;-85
2023/11/26 00:40:45;;;;;;;33.40;20.90;;;;;;;-0.43;77.22;95754.39;104617;1261;101375;-84
2023/11/26 00:43:13;;;;;;;30.00;19.70;;;;;;;-0.44;77.40;95756.86;104609;1262;98433;-84
2023/11/26 00:45:41;;;;;;;28.70;20.50;;;;;;;-0.46;77.47;95752.46;104613;1273;97127;-83
2023/11/26 00:48:09;;;;;;;30.90;21.10;;;;;;;-0.48;77.44;95757.45;104728;1260;97525;-86
2023/11/26 00:50:37;;;;;;;29.20;20.40;;;;;;;-0.48;77.57;95757.34;104655;1260;102152;-84
2023/11/26 00:53:05;;;;;;;28.50;20.50;;;;;;;-0.49;77.56;95758.32;104693;1260;101525;-84
2023/11/26 00:55:33;;;;;;;44.70;25.60;;;;;;;-0.47;77.55;95760.20;104638;1261;98741;-84
2023/11/26 00:58:02;;;;;;;47.20;26.40;;;;;;;-0.47;77.46;95761.76;104639;1257;96543;-84
2023/11/26 01:00:30;;;;;;;38.10;22.20;;;;;;;-0.44;77.63;95764.11;104698;1258;97509;-82
2023/11/26 01:02:58;;;;;;;38.20;22.60;;;;;;;-0.42;77.75;95762.94;104697;1261;100777;-83
2023/11/26 01:05:29;;;;;;;30.80;22.30;;;;;;;-0.42;77.72;95765.18;104699;1270;101527;-84
2023/11/26 01:07:57;;;;;;;27.10;17.20;;;;;;;-0.42;77.90;95767.46;104645;1258;98771;-84
2023/11/26 01:10:25;;;;;;;31.60;18.00;;;;;;;-0.44;77.72;95768.09;104615;1262;97906;-74
2023/11/26 01:12:53;;;;;;;30.70;16.40;;;;;;;-0.44;77.57;95769.71;104657;1260;97095;-74
2023/11/26 01:15:21;;;;;;;40.90;22.80;;;;;;;-0.40;77.39;95768.11;104535;1257;173718;-73
2023/11/26 01:17:49;;;;;;;39.10;20.70;;;;;;;-0.39;77.36;95767.89;104593;1264;103036;-85
2023/11/26 01:20:21;;;;;;;28.90;16.70;;;;;;;-0.37;77.42;95767.98;104685;1260;100113;-84
2023/11/26 01:22:49;;;;;;;37.90;22.30;;;;;;;-0.36;77.26;95770.19;104606;1257;96723;-84
2023/11/26 01:25:17;;;;;;;30.50;19.40;;;;;;;-0.36;77.20;95767.73;104664;1269;96987;-84
2023/11/26 01:27:45;;;;;;;17.70;11.60;;;;;;;-0.33;77.26;95768.06;104726;1261;101246;-86
2023/11/26 01:30:14;;;;;;;16.80;11.20;;;;;;;-0.30;77.30;95760.98;104659;1263;100111;-85
2023/11/26 01:32:43;;;;;;;16.00;11.40;;;;;;;-0.29;77.10;95761.72;104689;1271;100249;-84
2023/11/26 01:35:11;;;;;;;16.50;12.10;;;;;;;-0.28;77.10;95761.45;104497;1262;97989;-84
2023/11/26 01:37:39;;;;;;;22.40;13.90;;;;;;;-0.27;77.15;95760.52;104736;1260;97109;-85
2023/11/26 01:40:10;;;;;;;21.80;12.70;;;;;;;-0.27;77.21;95759.83;104691;1272;102276;-87
2023/11/26 01:42:43;;;;;;;15.70;10.30;;;;;;;-0.27;77.30;95758.48;104754;1261;101622;-86
2023/11/26 01:45:11;;;;;;;13.30;8.80;;;;;;;-0.26;77.31;95755.80;104661;1261;99571;-75
2023/11/26 01:47:49;;;;;;;13.10;8.90;;;;;;;-0.25;77.33;95753.16;104782;1259;96673;-74
2023/11/26 01:50:24;;;;;;;14.20;8.50;;;;;;;-0.22;77.38;95756.86;104713;1260;97075;-76
2023/11/26 01:52:55;;;;;;;12.70;8.70;;;;;;;-0.20;77.39;95750.20;104704;1260;102197;-75
2023/11/26 01:55:24;;;;;;;11.50;8.80;;;;;;;-0.17;77.27;95745.84;104517;1262;100433;-76
2023/11/26 01:57:52;;;;;;;13.30;8.70;;;;;;;-0.16;77.29;95750.34;104738;1260;99095;-75
2023/11/26 02:00:21;;;;;;;16.60;8.90;;;;;;;-0.17;77.27;95750.70;104615;1260;97542;-75
2023/11/26 02:02:49;;;;;;;17.40;9.90;;;;;;;-0.15;77.30;95750.28;104683;1272;97119;-84
2023/11/26 02:05:17;;;;;;;15.20;9.70;;;;;;;-0.13;77.35;95751.30;104658;1262;109947;-76
2023/11/26 02:07:46;;;;;;;16.70;10.90;;;;;;;-0.12;77.44;95751.16;104654;1260;101518;-85
2023/11/26 02:10:14;;;;;;;16.20;10.20;;;;;;;-0.12;77.36;95747.65;104698;1279;100057;-86
2023/11/26 02:12:42;;;;;;;16.00;10.60;;;;;;;-0.11;77.35;95751.58;104673;1261;96626;-84
2023/11/26 02:15:13;;;;;;;18.20;10.60;;;;;;;-0.08;77.38;95750.55;104763;1260;97114;-85
2023/11/26 02:17:41;;;;;;;18.20;10.70;;;;;;;-0.07;77.43;95753.71;104510;1264;102288;-74
2023/11/26 02:20:12;;;;;;;15.70;10.20;;;;;;;-0.06;77.40;95752.54;104768;1260;101575;-75
2023/11/26 02:22:40;;;;;;;16.40;11.00;;;;;;;-0.04;77.41;95756.49;104799;1259;99932;-74
2023/11/26 02:25:09;;;;;;;17.60;11.80;;;;;;;-0.02;77.40;95753.10;104616;1260;97869;-85
2023/11/26 02:27:37;;;;;;;15.70;11.20;;;;;;;0.00;77.45;95755.51;104865;1256;97043;-76
2023/11/26 02:30:05;;;;;;;16.40;11.10;;;;;;;0.02;77.39;95752.99;104653;1273;102430;-78
2023/11/26 02:32:33;;;;;;;18.90;12.60;;;;;;;0.01;77.36;95746.58;104682;1261;101661;-85
2023/11/26 02:35:01;;;;;;;17.10;12.80;;;;;;;0.02;77.44;95744.38;104573;1261;99938;-85
2023/11/26 02:37:29;;;;;;;17.70;12.70;;;;;;;0.02;77.49;95745.20;104670;1260;97392;-88
2023/11/26 02:39:57;;;;;;;17.30;12.20;;;;;;;0.02;77.59;95738.83;104755;1260;96991;-85
2023/11/26 02:42:26;;;;;;;19.70;12.90;;;;;;;0.02;77.60;95740.34;104598;1264;102138;-84
2023/11/26 02:44:54;;;;;;;18.90;13.50;;;;;;;-0.02;77.69;95740.36;104706;1262;100070;-83
2023/11/26 02:47:22;;;;;;;18.60;13.50;;;;;;;-0.03;77.79;95741.80;104683;1256;99363;-83
2023/11/26 02:49:49;;;;;;;18.00;12.70;;;;;;;-0.03;77.92;95742.11;104634;1262;97799;-84
2023/11/26 02:52:18;;;;;;;22.40;14.30;;;;;;;-0.03;77.93;95743.40;104655;1258;97984;-84
2023/11/26 02:54:46;;;;;;;19.50;14.00;;;;;;;-0.07;77.99;95747.26;104705;1260;100792;-84
2023/11/26 02:57:14;;;;;;;19.20;13.50;;;;;;;-0.09;78.10;95751.32;104657;1260;101231;-84
2023/11/26 02:59:42;;;;;;;20.80;13.80;;;;;;;-0.09;78.26;95748.70;104742;1261;98962;-84
2023/11/26 03:02:10;;;;;;;21.20;13.50;;;;;;;-0.09;78.42;95745.12;104684;1260;96574;-75
2023/11/26 03:04:38;;;;;;;19.00;14.60;;;;;;;-0.10;78.50;95745.50;104674;1261;97388;-76
2023/11/26 03:07:06;;;;;;;20.10;13.60;;;;;;;-0.17;78.58;95748.26;104654;1269;101363;-75
2023/11/26 03:12:56;;;;;;;20.20;13.90;;;;;;;-0.18;78.62;95745.38;104621;1274;101411;-76
2023/11/26 03:15:14;;;;;;;21.10;13.90;;;;;;;-0.25;78.88;95749.27;104672;1260;97184;-76
2023/11/26 03:17:42;;;;;;;20.40;14.00;;;;;;;-0.28;79.03;95761.69;104710;1270;96559;-76
2023/11/26 03:20:11;;;;;;;20.60;14.00;;;;;;;-0.41;79.07;95769.38;104644;1261;100440;-75
2023/11/26 03:22:39;;;;;;;17.20;12.10;;;;;;;-0.55;79.31;95775.05;104741;1261;101393;-75
2023/11/26 03:25:08;;;;;;;21.90;14.20;;;;;;;-0.61;79.67;95779.19;104716;1261;98974;-76
2023/11/26 03:27:36;;;;;;;17.00;13.10;;;;;;;-0.59;80.02;95774.75;104616;1258;96775;-76
2023/11/26 03:30:07;;;;;;;13.10;9.90;;;;;;;-0.54;80.18;95775.57;104626;1260;97043;-76
2023/11/26 03:32:36;;;;;;;10.50;8.00;;;;;;;-0.51;80.20;95780.44;104681;1257;101322;-76
2023/11/26 03:35:04;;;;;;;11.00;8.10;;;;;;;-0.50;80.04;95787.95;104636;1256;101356;-77
2023/11/26 03:37:32;;;;;;;11.00;7.70;;;;;;;-0.51;79.90;95796.78;104586;1261;100317;-76
2023/11/26 03:40:00;;;;;;;8.90;6.70;;;;;;;-0.57;79.91;95804.02;104642;1260;97870;-77
2023/11/26 03:42:29;;;;;;;9.40;5.60;;;;;;;-0.69;79.73;95806.48;104705;1261;97100;-83
2023/11/26 03:44:56;;;;;;;6.80;5.50;;;;;;;-0.76;79.89;95812.36;104584;1262;102249;-84
2023/11/26 03:47:24;;;;;;;8.30;5.70;;;;;;;-0.76;80.01;95818.79;104668;1272;100288;-75
2023/11/26 03:49:52;;;;;;;6.20;4.70;;;;;;;-0.80;80.05;95817.65;104643;1262;99072;-75
2023/11/26 03:52:20;;;;;;;5.90;4.40;;;;;;;-0.88;80.14;95822.13;104612;1257;97563;-76
2023/11/26 03:54:48;;;;;;;5.60;4.50;;;;;;;-0.91;80.16;95828.65;104621;1261;96565;-76
2023/11/26 03:57:16;;;;;;;6.50;4.40;;;;;;;-0.92;80.06;95832.57;104658;1269;109464;-75
2023/11/26 03:59:45;;;;;;;6.00;3.80;;;;;;;-0.93;80.08;95834.75;104602;1260;100152;-72
2023/11/26 04:02:14;;;;;;;5.80;4.10;;;;;;;-1.01;79.96;95835.68;104702;1260;99049;-83
2023/11/26 04:04:42;;;;;;;4.70;3.70;;;;;;;-1.06;80.01;95841.08;104656;1260;97256;-75
2023/11/26 04:07:11;;;;;;;6.70;4.90;;;;;;;-1.10;80.11;95847.47;104695;1262;97628;-75
2023/11/26 04:09:39;;;;;;;5.40;4.20;;;;;;;-1.16;80.02;95851.64;104667;1271;102339;-77
2023/11/26 04:12:07;;;;;;;7.10;4.80;;;;;;;-1.18;80.16;95848.74;104698;1258;101365;-75
2023/11/26 04:14:35;;;;;;;5.00;3.80;;;;;;;-1.18;80.18;95850.30;104687;1261;100002;-75
2023/11/26 04:17:04;;;;;;;5.50;4.70;;;;;;;-1.22;80.10;95852.55;104577;1260;98093;-83
2023/11/26 04:19:32;;;;;;;6.10;4.70;;;;;;;-1.23;80.27;95850.59;104575;1258;97108;-84
2023/11/26 04:21:59;;;;;;;6.70;4.90;;;;;;;-1.23;80.28;95855.16;104598;1262;102392;-84
2023/11/26 04:24:28;;;;;;;5.70;4.40;;;;;;;-1.23;80.24;95861.34;104504;1259;108535;-83
2023/11/26 04:26:56;;;;;;;5.70;4.80;;;;;;;-1.30;80.08;95862.64;104550;1262;107113;-83
2023/11/26 04:29:26;;;;;;;6.60;5.00;;;;;;;-1.35;80.14;95865.39;104559;1261;97947;-83
2023/11/26 04:31:54;;;;;;;7.70;5.60;;;;;;;-1.33;80.29;95876.26;104538;1261;97090;-74
2023/11/26 04:34:22;;;;;;;7.90;5.70;;;;;;;-1.30;80.29;95873.62;104502;1259;102508;-74
2023/11/26 04:36:50;;;;;;;15.20;6.00;;;;;;;-1.32;80.05;95878.84;104545;1262;101209;-75
2023/11/26 04:39:18;;;;;;;7.30;5.50;;;;;;;-1.33;80.04;95882.63;104496;1264;107403;-83
2023/11/26 04:41:47;;;;;;;9.90;6.10;;;;;;;-1.30;80.12;95889.38;104380;1265;97999;-83
2023/11/26 04:44:15;;;;;;;7.50;5.80;;;;;;;-1.25;80.23;95889.48;104481;1258;96726;-83
2023/11/26 04:46:42;;;;;;;7.80;6.20;;;;;;;-1.22;80.13;95890.92;104576;1262;101406;-76
2023/11/26 04:49:10;;;;;;;8.90;6.20;;;;;;;-1.22;79.94;95890.19;104639;1271;100079;-77
2023/11/26 04:51:38;;;;;;;9.40;7.10;;;;;;;-1.25;79.86;95903.21;104687;1261;100133;-76
2023/11/26 04:54:11;;;;;;;9.30;7.10;;;;;;;-1.27;79.83;95905.73;104645;1258;97604;-75
2023/11/26 04:56:42;;;;;;;9.40;7.00;;;;;;;-1.29;79.83;95912.46;104674;1260;97014;-75
2023/11/26 04:59:11;;;;;;;12.70;7.80;;;;;;;-1.27;79.87;95921.69;104733;1262;101113;-76
2023/11/26 05:01:43;;;;;;;10.50;7.90;;;;;;;-1.23;79.96;95923.20;104696;1272;100328;-85
2023/11/26 05:04:15;;;;;;;10.50;8.10;;;;;;;-1.21;79.88;95930.66;104671;1260;100281;-87
2023/11/26 05:06:43;;;;;;;10.20;6.80;;;;;;;-1.22;79.98;95938.23;104592;1259;96823;-84
2023/11/26 05:09:20;;;;;;;10.80;8.50;;;;;;;-1.23;80.00;95940.64;104729;1256;97813;-83
2023/11/26 05:11:48;;;;;;;10.20;8.20;;;;;;;-1.23;80.11;95946.20;104663;1261;102870;-83
2023/11/26 05:14:16;;;;;;;8.40;7.50;;;;;;;-1.18;80.23;95952.61;104626;1259;100246;-83
2023/11/26 05:16:44;;;;;;;11.00;8.70;;;;;;;-1.16;80.30;95953.77;104653;1258;99029;-85
2023/11/26 05:19:15;;;;;;;9.00;7.50;;;;;;;-1.14;80.33;95954.34;104638;1257;97252;-75
2023/11/26 05:21:43;;;;;;;13.30;7.80;;;;;;;-1.11;80.40;95955.44;104594;1256;97181;-75
2023/11/26 05:24:11;;;;;;;13.30;9.10;;;;;;;-1.10;80.38;95958.30;104636;1258;100958;-75
2023/11/26 05:26:39;;;;;;;11.40;8.80;;;;;;;-1.10;80.27;95958.09;104552;1275;100792;-75
2023/11/26 05:29:08;;;;;;;12.30;8.80;;;;;;;-1.13;80.15;95964.47;104640;1262;99078;-75
2023/11/26 05:31:36;;;;;;;10.00;8.60;;;;;;;-1.19;80.00;95966.38;104689;1271;97476;-83
2023/11/26 05:34:04;;;;;;;12.20;9.60;;;;;;;-1.22;80.05;95971.41;104699;1262;96553;-84
2023/11/26 05:36:32;;;;;;;12.60;9.80;;;;;;;-1.25;79.93;95977.55;104693;1260;101919;-84
2023/11/26 05:39:00;;;;;;;10.80;8.20;;;;;;;-1.29;79.78;95976.77;104661;1269;100190;-85
2023/11/26 05:41:29;;;;;;;12.60;9.00;;;;;;;-1.35;79.71;95982.59;104616;1262;100131;-83
2023/11/26 05:43:57;;;;;;;12.00;9.10;;;;;;;-1.33;79.80;95989.23;104642;1257;96664;-84
2023/11/26 05:46:25;;;;;;;10.10;8.10;;;;;;;-1.29;79.77;95993.14;104768;1260;97107;-83
2023/11/26 05:48:53;;;;;;;9.20;8.30;;;;;;;-1.27;79.62;96000.31;104636;1257;100792;-83
2023/11/26 05:51:24;;;;;;;10.40;8.00;;;;;;;-1.26;79.56;96003.91;104739;1260;100342;-82
2023/11/26 05:53:52;;;;;;;11.20;8.50;;;;;;;-1.30;79.38;96007.98;104732;1257;98587;-85
2023/11/26 05:56:23;;;;;;;13.90;10.20;;;;;;;-1.32;79.43;96015.27;104607;1260;96578;-82
2023/11/26 05:58:51;;;;;;;14.50;11.60;;;;;;;-1.26;79.69;96024.73;104702;1258;97165;-74
2023/11/26 06:01:23;;;;;;;13.40;10.30;;;;;;;-1.24;79.52;96030.43;104765;1272;101908;-83
2023/11/26 06:03:52;;;;;;;12.80;9.00;;;;;;;-1.27;79.34;96032.45;104564;1274;101150;-83
2023/11/26 06:06:20;;;;;;;11.40;8.00;;;;;;;-1.31;79.07;96042.27;104716;1279;99014;-83
2023/11/26 06:08:48;;;;;;;9.30;7.00;;;;;;;-1.34;78.95;96043.73;104638;1260;98016;-83
2023/11/26 06:11:16;;;;;;;9.20;7.60;;;;;;;-1.40;78.82;96047.16;104662;1269;97008;-82
2023/11/26 06:13:43;;;;;;;16.60;9.20;;;;;;;-1.41;78.90;96044.34;104709;1260;101277;-84
2023/11/26 06:16:11;;;;;;;9.20;8.20;;;;;;;-1.41;78.84;96045.49;104728;1260;101380;-75
2023/11/26 06:18:39;;;;;;;12.20;9.40;;;;;;;-1.38;78.86;96048.94;104639;1256;98880;-84
2023/11/26 06:21:07;;;;;;;12.30;9.00;;;;;;;-1.37;78.82;96048.27;104684;1262;96860;-84
2023/11/26 06:23:35;;;;;;;9.90;7.60;;;;;;;-1.38;78.72;96051.85;104701;1259;97504;-84
2023/11/26 06:26:03;;;;;;;11.00;7.90;;;;;;;-1.38;78.57;96056.31;104684;1262;102437;-86
2023/11/26 06:28:31;;;;;;;11.10;7.20;;;;;;;-1.45;78.26;96059.58;104654;1256;101467;-83
2023/11/26 06:30:59;;;;;;;12.00;8.70;;;;;;;-1.53;78.21;96061.71;104717;1256;100011;-74
2023/11/26 06:33:27;;;;;;;13.00;9.50;;;;;;;-1.57;78.36;96061.66;104651;1256;96594;-73
2023/11/26 06:35:55;;;;;;;12.10;9.70;;;;;;;-1.55;78.61;96062.84;104670;1260;97014;-84
2023/11/26 06:38:24;;;;;;;13.80;10.30;;;;;;;-1.50;78.69;96068.92;104751;1261;102452;-72
2023/11/26 06:40:52;;;;;;;12.70;9.90;;;;;;;-1.48;78.58;96071.20;104644;1256;101217;-74
2023/11/26 06:43:20;;;;;;;12.90;10.70;;;;;;;-1.49;78.62;96078.59;104702;1260;98492;-75
2023/11/26 06:45:48;;;;;;;14.90;11.00;;;;;;;-1.48;78.64;96079.27;104719;1262;97888;-75
2023/11/26 06:48:15;;;;;;;12.80;10.70;;;;;;;-1.43;78.68;96080.88;104658;1272;97129;-75
2023/11/26 06:50:43;;;;;;;14.30;11.20;;;;;;;-1.41;78.68;96084.91;104654;1257;102205;-74
2023/11/26 06:53:12;;;;;;;12.70;10.60;;;;;;;-1.37;78.78;96083.52;104743;1259;101390;-83
2023/11/26 06:55:39;;;;;;;12.80;9.70;;;;;;;-1.36;78.59;96083.79;104670;1262;98729;-82
2023/11/26 06:58:07;;;;;;;11.30;8.70;;;;;;;-1.38;78.37;96084.35;104679;1259;96646;-83
2023/11/26 07:00:36;;;;;;;12.30;8.10;;;;;;;-1.38;78.28;96091.09;104650;1261;96997;-83
2023/11/26 07:03:04;;;;;;;9.70;8.10;;;;;;;-1.45;78.04;96092.34;104716;1260;101194;-83
2023/11/26 07:05:32;;;;;;;11.40;8.40;;;;;;;-1.50;77.95;96095.52;104708;1257;101088;-85
2023/11/26 07:08:00;;;;;;;11.20;8.30;;;;;;;-1.47;78.14;96097.77;104529;1265;99585;-83
2023/11/26 07:10:28;;;;;;;12.30;8.60;;;;;;;-1.47;78.04;96099.46;104624;1257;96555;-83
2023/11/26 07:12:57;;;;;;;11.60;9.10;;;;;;;-1.47;77.97;96100.58;104698;1256;97102;-84
2023/11/26 07:15:25;;;;;;;9.60;8.00;;;;;;;-1.51;77.89;96097.80;104632;1261;102125;-73
2023/11/26 07:17:53;;;;;;;10.40;8.80;;;;;;;-1.52;77.82;96099.73;104681;1261;101517;-73
2023/11/26 07:20:21;;;;;;;12.90;8.30;;;;;;;-1.53;77.80;96102.73;104790;1256;100036;-74
2023/11/26 07:22:49;;;;;;;13.80;8.90;;;;;;;-1.49;77.80;96103.36;104646;1256;97227;-76
2023/11/26 07:25:17;;;;;;;12.20;8.70;;;;;;;-1.47;77.74;96107.04;104647;1260;97205;-74
2023/11/26 07:27:46;;;;;;;11.30;9.50;;;;;;;-1.45;77.62;96110.73;104648;1260;101270;-73
2023/11/26 07:30:14;;;;;;;14.30;9.80;;;;;;;-1.48;77.54;96117.95;104685;1270;100627;-72
2023/11/26 07:32:45;;;;;;;15.50;10.80;;;;;;;-1.51;77.40;96119.14;104708;1262;99281;-76
2023/11/26 07:35:14;;;;;;;20.00;12.10;;;;;;;-1.57;77.29;96123.23;104693;1260;96915;-73
2023/11/26 07:37:42;;;;;;;13.80;9.40;;;;;;;-1.62;77.22;96128.82;104595;1256;96992;-73
2023/11/26 07:40:14;;;;;;;13.90;9.70;;;;;;;-1.63;77.22;96132.83;104638;1256;102455;-73
2023/11/26 07:42:42;;;;;;;13.00;9.30;;;;;;;-1.59;77.15;96135.61;104641;1276;101020;-72
2023/11/26 07:45:11;;;;;;;13.60;8.80;;;;;;;-1.57;77.07;96141.91;104592;1262;99817;-72
2023/11/26 07:47:39;;;;;;;12.60;9.50;;;;;;;-1.59;76.99;96145.13;104666;1261;96588;-83
2023/11/26 07:50:07;;;;;;;12.40;9.80;;;;;;;-1.61;76.99;96147.48;104741;1260;97314;-72
2023/11/26 07:52:35;;;;;;;15.70;10.50;;;;;;;-1.57;77.10;96146.96;104674;1258;101244;-83
2023/11/26 07:55:04;;;;;;;11.80;9.70;;;;;;;-1.51;77.04;96148.58;104645;1262;110137;-73
2023/11/26 07:57:34;;;;;;;15.90;10.80;;;;;;;-1.50;76.96;96154.54;104783;1260;99098;-73
2023/11/26 08:00:02;;;;;;;13.40;10.40;;;;;;;-1.55;76.81;96152.98;104487;1259;97128;-73
2023/11/26 08:02:30;;;;;;;13.90;10.10;;;;;;;-1.57;76.77;96153.48;104819;1256;97033;-83
2023/11/26 08:04:58;;;;;;;15.70;11.10;;;;;;;-1.58;76.77;96157.14;104639;1260;102554;-84
2023/11/26 08:07:29;;;;;;;13.20;9.20;;;;;;;-1.54;76.78;96162.34;104717;1262;100156;-83
2023/11/26 08:09:58;;;;;;;11.90;8.50;;;;;;;-1.49;76.51;96164.86;104540;1265;99104;-84
2023/11/26 08:12:28;;;;;;;11.90;8.40;;;;;;;-1.48;76.46;96159.53;104690;1256;97892;-73
2023/11/26 08:15:03;;;;;;;10.60;8.00;;;;;;;-1.50;76.31;96163.51;104742;1261;97397;-73
2023/11/26 08:17:35;;;;;;;12.20;9.30;;;;;;;-1.50;76.29;96165.16;104655;1256;102370;-83
2023/11/26 08:20:09;;;;;;;12.70;9.20;;;;;;;-1.45;76.31;96171.43;104560;1275;108863;-84
2023/11/26 08:22:40;;;;;;;14.30;9.50;;;;;;;-1.47;76.01;96173.59;104824;1271;99887;-88
2023/11/26 08:25:12;;;;;;;12.90;11.00;;;;;;;-1.50;76.03;96174.75;104645;1260;97494;-82
2023/11/26 08:27:44;;;;;;;12.10;9.20;;;;;;;-1.56;75.85;96173.49;104391;1262;97267;-83
2023/11/26 08:30:15;;;;;;;12.70;9.00;;;;;;;-1.58;76.01;96174.70;104549;1262;102293;-75
2023/11/26 08:32:46;;;;;;;13.30;9.80;;;;;;;-1.55;75.94;96180.44;104622;1256;101351;-86
2023/11/26 08:35:16;;;;;;;11.70;7.50;;;;;;;-1.50;75.92;96181.34;104615;1260;100115;-83
2023/11/26 08:37:44;;;;;;;11.10;8.90;;;;;;;-1.47;75.92;96182.77;104516;1264;97496;-84
2023/11/26 08:40:13;;;;;;;11.30;8.10;;;;;;;-1.49;75.68;96180.71;104728;1259;98440;-84
2023/11/26 08:42:42;;;;;;;12.20;9.00;;;;;;;-1.51;75.42;96186.59;104748;1273;101395;-84
2023/11/26 08:45:10;;;;;;;10.90;8.70;;;;;;;-1.64;75.22;96185.87;104602;1256;101385;-82
2023/11/26 08:47:43;;;;;;;15.60;10.30;;;;;;;-1.74;75.33;96190.46;104663;1274;99253;-81
2023/11/26 08:50:11;;;;;;;19.10;12.70;;;;;;;-1.73;75.52;96195.72;104703;1262;97781;-73
2023/11/26 08:52:43;;;;;;;20.30;13.00;;;;;;;-1.68;75.73;96197.11;104701;1262;98459;-74
2023/11/26 08:55:11;;;;;;;18.90;11.80;;;;;;;-1.61;75.38;96196.30;104829;1257;102325;-74
2023/11/26 08:57:52;;;;;;;16.50;10.80;;;;;;;-1.55;75.29;96197.05;107083;1256;100427;-74
2023/11/26 09:00:20;;;;;;;15.20;10.60;;;;;;;-1.52;75.18;96198.37;104708;1256;99895;-74
2023/11/26 09:02:57;;;;;;;14.00;10.80;;;;;;;-1.52;75.42;96198.30;105117;1260;97482;-77
2023/11/26 09:05:25;;;;;;;17.10;11.90;;;;;;;-1.45;75.46;96198.63;104644;1258;97197;-74
2023/11/26 09:07:53;;;;;;;14.30;10.90;;;;;;;-1.35;75.47;96199.86;104679;1262;100203;-85
2023/11/26 09:10:21;;;;;;;15.00;10.10;;;;;;;-1.29;75.20;96204.11;104685;1272;100248;-82
2023/11/26 09:12:49;;;;;;;14.70;10.50;;;;;;;-1.23;75.12;96205.13;104600;1271;100697;-85
2023/11/26 09:15:20;;;;;;;14.40;10.60;;;;;;;-1.14;74.96;96205.25;104681;1277;97777;-83
2023/11/26 09:17:48;;;;;;;11.60;9.30;;;;;;;-1.08;74.79;96204.00;104684;1260;96767;-84
2023/11/26 09:20:16;;;;;;;13.00;9.90;;;;;;;-1.01;74.68;96204.02;104718;1261;102193;-84
2023/11/26 09:22:45;;;;;;;15.50;10.50;;;;;;;-0.95;74.54;96203.05;104664;1262;101671;-85
2023/11/26 09:25:13;;;;;;;12.80;9.40;;;;;;;-0.94;74.32;96199.83;104765;1262;100083;-85
2023/11/26 09:27:42;;;;;;;12.40;9.30;;;;;;;-0.90;74.19;96199.67;104570;1264;96690;-84
2023/11/26 09:30:10;;;;;;;13.00;8.90;;;;;;;-0.85;74.15;96201.55;104703;1262;96606;-84
2023/11/26 09:32:38;;;;;;;13.00;9.50;;;;;;;-0.81;73.99;96196.59;104748;1271;102417;-84
2023/11/26 09:35:06;;;;;;;15.60;10.50;;;;;;;-0.74;73.94;96197.30;104653;1262;99956;-84
2023/11/26 09:37:34;;;;;;;16.50;11.40;;;;;;;-0.66;73.82;96198.14;104789;1264;99933;-85
2023/11/26 09:40:03;;;;;;;18.10;11.60;;;;;;;-0.60;73.59;96197.36;104655;1262;96787;-83
2023/11/26 09:42:31;;;;;;;14.40;9.50;;;;;;;-0.60;73.37;96198.30;104610;1262;97306;-83
2023/11/26 09:45:00;;;;;;;15.00;10.50;;;;;;;-0.55;73.10;96198.98;104705;1272;102462;-83
2023/11/26 09:47:28;;;;;;;16.50;11.00;;;;;;;-0.54;73.09;96202.50;104429;1266;100574;-75
2023/11/26 09:49:56;;;;;;;15.30;10.20;;;;;;;-0.50;73.02;96203.87;104718;1256;100171;-82
2023/11/26 09:52:27;;;;;;;19.00;11.00;;;;;;;-0.44;72.82;96206.27;104706;1276;96914;-83
2023/11/26 09:54:59;;;;;;;15.10;8.50;;;;;;;-0.38;72.56;96202.53;104758;1270;97001;-82
2023/11/26 09:57:28;;;;;;;13.30;7.90;;;;;;;-0.31;72.29;96207.30;104700;1262;101349;-84
2023/11/26 09:59:57;;;;;;;12.10;7.90;;;;;;;-0.36;72.03;96208.36;104719;1261;101463;-84
2023/11/26 10:02:25;;;;;;;13.20;7.30;;;;;;;-0.50;71.86;96214.21;104635;1262;100006;-81
2023/11/26 10:04:54;;;;;;;15.80;7.20;;;;;;;-0.65;71.78;96213.60;104777;1256;96571;-84
2023/11/26 10:07:40;;;;;;;15.30;8.20;;;;;;;-0.62;71.90;96219.42;104579;1265;97094;-82
2023/11/26 10:10:10;;;;;;;10.40;7.60;;;;;;;-0.61;71.70;96222.84;104648;1256;101159;-83
2023/11/26 10:12:56;;;;;;;11.30;8.00;;;;;;;-0.61;71.45;96219.20;104732;1262;101234;-84
2023/11/26 10:15:28;;;;;;;11.00;7.80;;;;;;;-0.62;71.31;96224.50;104682;1262;99198;-83
2023/11/26 10:18:03;;;;;;;11.30;7.80;;;;;;;-0.59;71.40;96224.68;104682;1256;96809;-73
2023/11/26 10:20:33;;;;;;;10.60;7.60;;;;;;;-0.59;71.12;96221.00;104713;1262;97079;-73
2023/11/26 10:23:02;;;;;;;10.50;7.30;;;;;;;-0.57;71.19;96223.98;104715;1256;100872;-74
2023/11/26 10:25:30;;;;;;;14.70;8.90;;;;;;;-0.57;71.23;96227.32;104653;1256;100376;-82
2023/11/26 10:27:59;;;;;;;13.10;8.70;;;;;;;-0.59;71.24;96226.98;104655;1257;99029;-83
2023/11/26 10:30:30;;;;;;;14.40;8.90;;;;;;;-0.65;71.23;96223.08;104774;1267;96590;-83
2023/11/26 10:33:05;;;;;;;14.40;8.40;;;;;;;-0.70;71.21;96227.16;104669;1265;96580;-87
2023/11/26 10:35:51;;;;;;;11.60;7.70;;;;;;;-0.67;71.04;96236.04;104751;1269;101210;-83
2023/11/26 10:38:21;;;;;;;11.10;7.60;;;;;;;-0.59;70.81;96238.70;104685;1262;101587;-82
2023/11/26 10:40:50;;;;;;;12.20;7.90;;;;;;;-0.72;70.46;96241.73;104734;1262;99491;-82
2023/11/26 10:43:22;;;;;;;12.20;8.10;;;;;;;-0.84;70.31;96246.45;104618;1259;97918;-76
2023/11/26 10:45:51;;;;;;;13.00;7.90;;;;;;;-0.96;70.50;96245.35;104803;1262;96995;-83
2023/11/26 10:48:19;;;;;;;10.00;6.30;;;;;;;-1.02;70.54;96247.11;104731;1257;101794;-74
2023/11/26 10:50:54;;;;;;;11.10;6.60;;;;;;;-0.94;70.45;96248.98;104840;1256;101338;-74
2023/11/26 10:53:46;;;;;;;10.80;6.50;;;;;;;-0.79;70.02;96250.88;104725;1262;99969;-74
2023/11/26 10:56:17;;;;;;;8.00;5.20;;;;;;;-0.78;69.78;96253.56;104621;1262;96586;-74
2023/11/26 10:58:58;;;;;;;10.70;5.70;;;;;;;-0.82;69.75;96251.86;104669;1260;97092;-73
2023/11/26 11:01:26;;;;;;;9.70;6.50;;;;;;;-0.77;69.86;96252.73;104656;1262;102383;-73
2023/11/26 11:03:56;;;;;;;12.10;6.90;;;;;;;-0.80;69.84;96259.79;104665;1262;101399;-82
2023/11/26 11:06:24;;;;;;;10.80;7.50;;;;;;;-0.81;70.02;96255.41;104522;1265;101102;-83
2023/11/26 11:08:55;;;;;;;11.90;7.60;;;;;;;-0.83;70.04;96247.33;104681;1272;96653;-83
2023/11/26 11:11:47;;;;;;;12.50;6.30;;;;;;;-0.80;70.12;96250.41;104806;1261;97778;-85
2023/11/26 11:14:16;;;;;;;7.70;5.60;;;;;;;-0.75;69.83;96249.13;104765;1262;102277;-84
2023/11/26 11:16:44;;;;;;;11.40;6.30;;;;;;;-0.73;69.78;96252.09;104698;1262;101477;-84
2023/11/26 11:19:12;;;;;;;9.80;6.30;;;;;;;-0.83;69.62;96253.00;104633;1260;99883;-83
2023/11/26 11:21:49;;;;;;;8.50;6.00;;;;;;;-0.91;69.76;96245.44;104718;1261;97007;-76
2023/11/26 11:24:20;;;;;;;11.50;7.30;;;;;;;-1.00;69.81;96251.41;104666;1259;97202;-73